This is the latest recevied weather packets stored in our database for station/object W2SRH. If no packets are shown the sender has not sent any weather packets the latest 10 day(s).
| Time | Temp. | Humidity | Pressure | Rain* | Wind** | Luminosity | Snow |
|---|---|---|---|---|---|---|---|
| 1777524554 | 8.89° C | 91% | 1000.8 hPa | 0.51 mm | 0 m/s | - | - |
| 1777524547 | 8.89° C | 91% | 1000.9 hPa | 1.78 mm | 0 m/s | - | - |
| 1777524540 | 8.89° C | 91% | 1000.8 hPa | 0.51 mm | 0 m/s | - | - |
| 1777523944 | 8.89° C | 91% | 1000.8 hPa | 1.52 mm | 0 m/s | - | - |
| 1777523344 | 8.89° C | 91% | 1000.8 hPa | 0.51 mm | 0 m/s | - | - |
| 1777522744 | 8.89° C | 91% | 1000.8 hPa | 0.51 mm | 0 m/s | - | - |
| 1777522623 | 8.89° C | 92% | 1000.7 hPa | 0.76 mm | 0.45 m/s, 149° | - | - |
| 1777522144 | 8.89° C | 91% | 1000.8 hPa | 0.51 mm | 0 m/s | - | - |
| 1777521544 | 8.89° C | 92% | 1000.7 hPa | 0.76 mm | 0 m/s | - | - |
| 1777520944 | 8.89° C | 92% | 1000.7 hPa | 0.76 mm | 0.45 m/s, 149° | - | - |
| 1777520344 | 8.89° C | 91% | 1001 hPa | 0.25 mm | 0 m/s | - | - |
| 1777519743 | 8.89° C | 91% | 1000.7 hPa | 0 mm | 0 m/s | - | - |
| 1777519144 | 8.89° C | 91% | 1000.6 hPa | 0 mm | 0.45 m/s, 170° | - | - |
| 1777518543 | 8.89° C | 91% | 1000.6 hPa | 0 mm | 0.45 m/s, 154° | - | - |
| 1777517943 | 8.89° C | 91% | 1000.7 hPa | 0.25 mm | 0.45 m/s, 167° | - | - |
| 1777517343 | 8.89° C | 90% | 1000.8 hPa | 0.51 mm | 0.45 m/s, 143° | - | - |
| 1777516743 | 9.44° C | 90% | 1001.1 hPa | 1.02 mm | 0.45 m/s, 156° | - | - |
| 1777516144 | 9.44° C | 90% | 1001.4 hPa | 1.52 mm | 0.45 m/s, 145° | - | - |
| 1777515545 | 9.44° C | 90% | 1001.6 hPa | 2.29 mm | 0.45 m/s, 127° | - | - |
| 1777514944 | 9.44° C | 90% | 1001.9 hPa | 2.54 mm | 0 m/s | - | - |
| 1777514348 | 9.44° C | 89% | 1001.9 hPa | 2.54 mm | 0 m/s | - | - |
| 1777513744 | 9.44° C | 89% | 1001.7 hPa | 2.54 mm | 0 m/s | - | - |
| 1777513144 | 9.44° C | 88% | 1001.6 hPa | 1.78 mm | 0 m/s | - | - |
| 1777512544 | 9.44° C | 87% | 1001.4 hPa | 1.27 mm | 0.45 m/s, 141° | - | - |
| 1777511944 | 10° C | 86% | 1001.6 hPa | 1.02 mm | 0.45 m/s, 136° | - | - |
* Rain latest hour (hover to see other rain measurements)
** Current wind speed in m/s (hover to see current wind gust speed)